createdAt,value
2019-04-20T00:00:58.543Z,19.80
2019-04-20T00:03:32.246Z,19.80
2019-04-20T00:05:57.414Z,19.80
2019-04-20T00:08:29.698Z,19.80
2019-04-20T00:11:04.180Z,19.80
2019-04-20T00:13:38.392Z,19.80
2019-04-20T00:15:55.693Z,19.80
2019-04-20T00:18:26.826Z,19.80
2019-04-20T00:21:05.622Z,19.80
2019-04-20T00:23:46.897Z,19.70
2019-04-20T00:27:01.950Z,19.70
2019-04-20T00:29:20.203Z,19.70
2019-04-20T00:31:43.171Z,19.70
2019-04-20T00:34:07.895Z,19.70
2019-04-20T00:36:27.732Z,19.70
2019-04-20T00:39:00.959Z,19.70
2019-04-20T00:41:27.567Z,19.70
2019-04-20T00:43:58.673Z,19.70
2019-04-20T00:46:34.080Z,19.70
2019-04-20T00:49:02.782Z,19.70
2019-04-20T00:51:39.968Z,19.70
2019-04-20T00:53:57.269Z,19.60
2019-04-20T00:56:24.460Z,19.70
2019-04-20T00:59:08.827Z,19.60
2019-04-20T01:01:42.480Z,19.70
2019-04-20T01:04:14.847Z,19.60
2019-04-20T01:06:56.305Z,19.60
2019-04-20T01:09:22.356Z,19.60
2019-04-20T01:11:51.671Z,19.60
2019-04-20T01:14:30.276Z,19.70
2019-04-20T01:16:57.917Z,19.60
2019-04-20T01:19:20.565Z,19.60
2019-04-20T01:21:54.488Z,19.70
2019-04-20T01:24:23.888Z,19.60
2019-04-20T01:26:53.372Z,19.60
2019-04-20T01:29:29.230Z,19.60
2019-04-20T01:32:02.378Z,19.60
2019-04-20T01:34:34.540Z,19.60
2019-04-20T01:37:05.636Z,19.60
2019-04-20T01:39:27.618Z,19.60
2019-04-20T01:41:47.569Z,19.60
2019-04-20T01:44:18.036Z,19.60
2019-04-20T01:46:50.487Z,19.60
2019-04-20T01:49:20.302Z,19.60
2019-04-20T01:51:53.761Z,19.60
2019-04-20T01:54:33.905Z,19.60
2019-04-20T01:56:59.168Z,19.50
2019-04-20T01:59:39.961Z,19.50
2019-04-20T02:02:19.562Z,19.50
2019-04-20T02:05:04.467Z,19.50
2019-04-20T02:07:34.622Z,19.50
2019-04-20T02:10:02.737Z,19.50
2019-04-20T02:12:31.144Z,19.50
2019-04-20T02:15:00.726Z,19.50
2019-04-20T02:17:33.080Z,19.50
2019-04-20T02:20:19.873Z,19.50
2019-04-20T02:22:45.267Z,19.50
2019-04-20T02:24:55.138Z,19.50
2019-04-20T02:27:30.815Z,19.50
2019-04-20T02:30:25.274Z,19.50
2019-04-20T02:33:14.635Z,19.40
2019-04-20T02:36:06.769Z,19.50
2019-04-20T02:39:05.855Z,19.40
2019-04-20T02:41:37.596Z,19.40
2019-04-20T02:44:04.378Z,19.40
2019-04-20T02:46:06.060Z,19.40
2019-04-20T02:48:41.226Z,19.40
2019-04-20T02:51:13.491Z,19.40
2019-04-20T02:53:51.162Z,19.40
2019-04-20T02:56:12.902Z,19.40
2019-04-20T02:58:41.709Z,19.40
2019-04-20T03:01:16.929Z,19.40
2019-04-20T03:03:33.951Z,19.40
2019-04-20T03:06:12.171Z,19.30
2019-04-20T03:08:46.887Z,19.40
2019-04-20T03:11:20.931Z,19.40
2019-04-20T03:13:42.973Z,19.30
2019-04-20T03:16:15.467Z,19.40
2019-04-20T03:18:39.964Z,19.30
2019-04-20T03:21:11.242Z,19.30
2019-04-20T03:23:54.243Z,19.30
2019-04-20T03:26:19.344Z,19.30
2019-04-20T03:28:54.105Z,19.30
2019-04-20T03:31:59.313Z,19.30
2019-04-20T03:34:23.532Z,19.30
2019-04-20T03:36:39.395Z,19.30
2019-04-20T03:38:57.349Z,19.30
2019-04-20T03:41:18.501Z,19.30
2019-04-20T03:43:37.144Z,19.30
2019-04-20T03:46:10.850Z,19.30
2019-04-20T03:48:52.186Z,19.20
2019-04-20T03:51:30.382Z,19.30
2019-04-20T03:54:14.841Z,19.30
2019-04-20T03:56:54.298Z,19.30
2019-04-20T03:59:33.264Z,19.20
2019-04-20T04:02:22.867Z,19.20
2019-04-20T04:05:08.830Z,19.30
2019-04-20T04:07:30.386Z,19.20
2019-04-20T04:10:04.649Z,19.20
2019-04-20T04:12:41.755Z,19.20
2019-04-20T04:15:06.806Z,19.20
2019-04-20T04:17:39.073Z,19.20
2019-04-20T04:20:10.120Z,19.20
2019-04-20T04:22:50.059Z,19.20
2019-04-20T04:25:15.954Z,19.20
2019-04-20T04:27:55.052Z,19.20
2019-04-20T04:30:20.571Z,19.20
2019-04-20T04:33:26.666Z,19.20
2019-04-20T04:35:18.997Z,19.20
2019-04-20T04:37:54.942Z,19.20
2019-04-20T04:40:37.506Z,19.20
2019-04-20T04:42:52.289Z,19.20
2019-04-20T04:45:07.539Z,19.10
2019-04-20T04:47:32.675Z,19.20
2019-04-20T04:50:09.592Z,19.10
2019-04-20T04:52:44.624Z,19.10
2019-04-20T04:55:16.219Z,19.10
2019-04-20T04:57:30.487Z,19.10
2019-04-20T04:59:59.429Z,19.10
2019-04-20T05:02:32.510Z,19.20
2019-04-20T05:05:35.955Z,19.10
2019-04-20T05:07:58.528Z,19.10
2019-04-20T05:10:16.333Z,19.10
2019-04-20T05:12:45.973Z,19.10
2019-04-20T05:15:31.034Z,19.10
2019-04-20T05:18:07.193Z,19.10
2019-04-20T05:20:35.562Z,19.10
2019-04-20T05:23:07.605Z,19.10
2019-04-20T05:25:53.650Z,19.10
2019-04-20T05:28:16.749Z,19.10
2019-04-20T05:30:42.890Z,19.10
2019-04-20T05:33:08.957Z,19.10
2019-04-20T05:35:58.891Z,19.10
2019-04-20T05:38:32.677Z,19.10
2019-04-20T05:40:51.423Z,19.10
2019-04-20T05:43:27.513Z,19.10
2019-04-20T05:45:56.413Z,19.20
2019-04-20T05:48:33.683Z,19.20
2019-04-20T05:50:57.514Z,19.20
2019-04-20T05:53:34.026Z,19.20
2019-04-20T05:56:01.017Z,19.30
2019-04-20T05:58:36.513Z,19.30
2019-04-20T06:01:06.757Z,19.40
2019-04-20T06:03:28.968Z,19.50
2019-04-20T06:06:03.830Z,19.50
2019-04-20T06:11:02.049Z,19.60
2019-04-20T06:13:33.654Z,19.60
2019-04-20T06:16:13.883Z,19.60
2019-04-20T06:18:45.876Z,19.70
2019-04-20T06:21:31.327Z,19.70
2019-04-20T06:24:02.623Z,19.70
2019-04-20T06:26:43.794Z,19.80
2019-04-20T06:28:55.237Z,19.80
2019-04-20T06:31:35.945Z,19.80
2019-04-20T06:34:25.891Z,19.90
2019-04-20T06:36:48.643Z,19.90
2019-04-20T06:39:17.199Z,19.90
2019-04-20T06:44:21.569Z,20.00
2019-04-20T06:46:45.615Z,20.00
2019-04-20T06:49:17.325Z,20.00
2019-04-20T06:52:11.192Z,20.00
2019-04-20T06:57:39.851Z,19.70
2019-04-20T07:00:14.133Z,19.60
2019-04-20T07:02:43.111Z,19.60
2019-04-20T07:07:41.871Z,19.50
2019-04-20T07:10:16.349Z,19.50
2019-04-20T07:12:33.131Z,19.50
2019-04-20T07:14:56.607Z,19.50
2019-04-20T07:17:54.624Z,19.50
2019-04-20T07:20:19.570Z,19.50
2019-04-20T07:23:03.546Z,19.40
2019-04-20T07:25:29.301Z,19.30
2019-04-20T07:27:59.463Z,19.20
2019-04-20T07:30:21.607Z,19.20
2019-04-20T07:33:08.774Z,19.20
2019-04-20T07:35:24.816Z,19.20
2019-04-20T07:38:21.312Z,19.20
2019-04-20T07:40:26.874Z,19.20
2019-04-20T07:42:58.750Z,19.30
2019-04-20T07:48:01.689Z,19.30
2019-04-20T07:50:18.638Z,19.20
2019-04-20T07:52:43.870Z,19.20
2019-04-20T07:57:46.673Z,19.20
2019-04-20T08:00:30.641Z,19.20
2019-04-20T08:03:18.576Z,19.20
2019-04-20T08:05:48.623Z,19.30
2019-04-20T08:08:37.642Z,19.30
2019-04-20T08:10:54.279Z,19.30
2019-04-20T08:13:39.007Z,19.30
2019-04-20T08:16:00.444Z,19.30
2019-04-20T08:18:35.144Z,19.30
2019-04-20T08:20:58.117Z,19.40
2019-04-20T08:23:28.592Z,19.40
2019-04-20T08:25:47.076Z,19.40
2019-04-20T08:28:24.998Z,19.40
2019-04-20T08:31:18.084Z,19.50
2019-04-20T08:34:07.698Z,19.50
2019-04-20T08:36:29.273Z,19.50
2019-04-20T08:39:16.513Z,19.50
2019-04-20T08:41:20.749Z,19.60
2019-04-20T08:46:26.851Z,19.60
2019-04-20T08:48:56.745Z,19.70
2019-04-20T08:51:25.928Z,19.70
2019-04-20T08:53:51.731Z,19.70
2019-04-20T08:56:18.544Z,19.80
2019-04-20T08:58:33.974Z,19.80
2019-04-20T09:01:05.608Z,19.80
2019-04-20T09:03:44.118Z,19.80
2019-04-20T09:06:09.821Z,19.90
2019-04-20T09:08:44.350Z,19.90
2019-04-20T09:11:19.687Z,19.90
2019-04-20T09:13:39.588Z,19.90
2019-04-20T09:16:02.103Z,19.90
2019-04-20T09:18:43.304Z,20.00
2019-04-20T09:21:19.147Z,20.00
2019-04-20T09:23:54.592Z,20.00
2019-04-20T09:26:25.078Z,20.10
2019-04-20T09:28:59.010Z,20.00
2019-04-20T09:31:39.305Z,20.10
2019-04-20T09:34:39.505Z,20.10
2019-04-20T09:37:24.729Z,20.10
2019-04-20T09:40:03.430Z,20.10
2019-04-20T09:42:38.811Z,20.10
2019-04-20T09:45:08.267Z,20.10
2019-04-20T09:47:43.531Z,20.10
2019-04-20T09:50:22.717Z,20.10
2019-04-20T09:52:51.657Z,20.20
2019-04-20T09:55:18.469Z,20.20
2019-04-20T09:57:54.141Z,20.20
2019-04-20T10:00:25.741Z,20.20
2019-04-20T10:02:38.990Z,20.20
2019-04-20T10:05:05.663Z,20.20
2019-04-20T10:07:35.643Z,20.30
2019-04-20T10:10:15.815Z,20.30
2019-04-20T10:12:33.542Z,20.30
2019-04-20T10:15:06.556Z,20.30
2019-04-20T10:17:33.242Z,20.30
2019-04-20T10:20:03.449Z,20.40
2019-04-20T10:22:30.889Z,20.30
2019-04-20T10:25:00.209Z,20.40
2019-04-20T10:27:28.557Z,20.40
2019-04-20T10:29:57.539Z,20.40
2019-04-20T10:32:36.280Z,20.40
2019-04-20T10:34:56.806Z,20.40
2019-04-20T10:37:35.600Z,20.40
2019-04-20T10:40:04.803Z,20.40
2019-04-20T10:42:34.207Z,20.40
2019-04-20T10:45:04.142Z,20.50
2019-04-20T10:47:32.786Z,20.40
2019-04-20T10:50:00.932Z,20.40
2019-04-20T10:52:29.803Z,20.50
2019-04-20T10:54:58.648Z,20.50
2019-04-20T10:57:27.839Z,20.50
2019-04-20T10:59:55.897Z,20.50
2019-04-20T11:02:24.216Z,20.50
2019-04-20T11:04:52.664Z,20.50
2019-04-20T11:07:20.800Z,20.50
2019-04-20T11:10:00.640Z,20.50
2019-04-20T11:12:18.460Z,20.50
2019-04-20T11:14:46.597Z,20.50
2019-04-20T11:17:14.535Z,20.50
2019-04-20T11:19:43.380Z,20.50
2019-04-20T11:22:12.565Z,20.50
2019-04-20T11:24:40.638Z,20.50
2019-04-20T11:27:09.932Z,20.60
2019-04-20T11:29:38.111Z,20.50
2019-04-20T11:32:07.243Z,20.60
2019-04-20T11:34:39.016Z,20.50
2019-04-20T11:37:06.768Z,20.60
2019-04-20T11:39:34.969Z,20.60
2019-04-20T11:42:03.662Z,20.60
2019-04-20T11:44:33.257Z,20.50
2019-04-20T11:47:01.276Z,20.50
2019-04-20T11:49:29.207Z,20.60
2019-04-20T11:51:57.319Z,20.60
2019-04-20T11:54:26.387Z,20.60
2019-04-20T11:56:55.506Z,20.60
2019-04-20T11:59:23.647Z,20.60
2019-04-20T12:02:03.695Z,20.60
2019-04-20T12:04:42.236Z,20.70
2019-04-20T12:07:03.119Z,20.60
2019-04-20T12:09:31.441Z,20.60
2019-04-20T12:12:12.175Z,20.60
2019-04-20T12:14:30.469Z,20.70
2019-04-20T12:16:59.646Z,20.70
2019-04-20T12:19:29.039Z,20.70
2019-04-20T12:21:57.947Z,20.70
2019-04-20T12:24:26.067Z,20.70
2019-04-20T12:26:54.587Z,20.70
2019-04-20T12:29:23.758Z,20.80
2019-04-20T12:31:56.294Z,20.80
2019-04-20T12:34:22.293Z,20.80
2019-04-20T12:36:51.166Z,20.80
2019-04-20T12:39:19.386Z,20.80
2019-04-20T12:41:53.779Z,20.80
2019-04-20T12:44:17.645Z,20.80
2019-04-20T12:46:47.721Z,20.80
2019-04-20T12:49:15.907Z,20.90
2019-04-20T12:51:50.755Z,20.80
2019-04-20T12:54:16.611Z,20.80
2019-04-20T12:56:46.495Z,20.80
2019-04-20T12:59:15.720Z,20.80
2019-04-20T13:01:44.144Z,20.80
2019-04-20T13:04:12.327Z,20.90
2019-04-20T13:06:40.872Z,20.90
2019-04-20T13:09:12.618Z,20.90
2019-04-20T13:12:05.557Z,20.90
2019-04-20T13:14:42.332Z,20.90
2019-04-20T13:17:10.883Z,20.90
2019-04-20T13:19:39.467Z,20.90
2019-04-20T13:22:07.968Z,21.00
2019-04-20T13:24:36.952Z,21.00
2019-04-20T13:27:05.229Z,21.00
2019-04-20T13:29:33.503Z,21.00
2019-04-20T13:32:02.119Z,21.00
2019-04-20T13:34:30.395Z,21.10
2019-04-20T13:37:00.072Z,21.10
2019-04-20T13:39:28.928Z,21.10
2019-04-20T13:42:06.167Z,21.10
2019-04-20T13:44:27.242Z,21.10
2019-04-20T13:46:56.725Z,21.10
2019-04-20T13:49:25.214Z,21.10
2019-04-20T13:51:53.160Z,21.10
2019-04-20T13:54:24.862Z,21.10
2019-04-20T13:56:52.622Z,21.10
2019-04-20T13:59:46.134Z,21.10
2019-04-20T14:02:21.050Z,21.10
2019-04-20T14:04:54.969Z,21.20
2019-04-20T14:07:24.347Z,21.20
2019-04-20T14:09:53.481Z,21.10
2019-04-20T14:12:28.387Z,21.10
2019-04-20T14:14:53.153Z,21.00
2019-04-20T14:17:21.652Z,21.10
2019-04-20T14:19:50.528Z,21.10
2019-04-20T14:22:18.800Z,21.10
2019-04-20T14:24:46.885Z,21.10
2019-04-20T14:27:15.144Z,21.10
2019-04-20T14:29:43.238Z,21.10
2019-04-20T14:32:12.017Z,21.10
2019-04-20T14:34:40.904Z,21.10
2019-04-20T14:37:09.175Z,21.10
2019-04-20T14:39:38.387Z,21.10
2019-04-20T14:42:06.682Z,21.10
2019-04-20T14:44:34.658Z,21.10
2019-04-20T14:47:03.635Z,21.10
2019-04-20T14:49:32.636Z,21.10
2019-04-20T14:52:02.484Z,21.10
2019-04-20T14:54:31.690Z,21.10
2019-04-20T14:57:01.384Z,21.20
2019-04-20T14:59:36.174Z,21.10
2019-04-20T15:02:08.451Z,21.10
2019-04-20T15:04:37.067Z,21.10
2019-04-20T15:07:06.569Z,21.10
2019-04-20T15:09:38.370Z,21.10
2019-04-20T15:12:06.615Z,21.10
2019-04-20T15:14:34.869Z,21.10
2019-04-20T15:17:04.717Z,21.10
2019-04-20T15:19:59.169Z,21.20
2019-04-20T15:22:34.084Z,21.20
2019-04-20T15:25:03.308Z,21.20
2019-04-20T15:27:33.175Z,21.20
2019-04-20T15:30:02.692Z,21.20
2019-04-20T15:32:31.336Z,21.20
2019-04-20T15:35:00.714Z,21.20
2019-04-20T15:37:28.924Z,21.20
2019-04-20T15:39:57.146Z,21.20
2019-04-20T15:42:25.448Z,21.20
2019-04-20T15:44:55.573Z,21.20
2019-04-20T15:47:24.137Z,21.20
2019-04-20T15:49:53.698Z,21.20
2019-04-20T15:52:26.197Z,21.20
2019-04-20T15:54:51.862Z,21.20
2019-04-20T15:57:25.201Z,21.20
2019-04-20T15:59:50.609Z,21.20
2019-04-20T16:02:29.456Z,21.20
2019-04-20T16:05:03.779Z,21.20
2019-04-20T16:07:40.584Z,21.20
2019-04-20T16:10:03.352Z,21.20
2019-04-20T16:12:31.375Z,21.20
2019-04-20T16:14:59.665Z,21.20
2019-04-20T16:17:33.772Z,21.20
2019-04-20T16:20:06.238Z,21.20
2019-04-20T16:22:28.906Z,21.20
2019-04-20T16:25:11.725Z,21.20
2019-04-20T16:27:41.457Z,21.20
2019-04-20T16:30:13.571Z,21.20
2019-04-20T16:32:42.737Z,21.20
2019-04-20T16:35:11.148Z,21.20
2019-04-20T16:37:40.312Z,21.20
2019-04-20T16:40:11.683Z,21.20
2019-04-20T16:42:42.217Z,21.20
2019-04-20T16:45:11.597Z,21.20
2019-04-20T16:47:42.123Z,21.20
2019-04-20T16:50:10.975Z,21.20
2019-04-20T16:52:39.242Z,21.20
2019-04-20T16:55:08.502Z,21.20
2019-04-20T16:57:37.379Z,21.20
2019-04-20T17:00:07.382Z,21.20
2019-04-20T17:02:36.201Z,21.20
2019-04-20T17:05:05.227Z,21.20
2019-04-20T17:07:39.292Z,21.20
2019-04-20T17:10:08.006Z,21.20
2019-04-20T17:12:35.984Z,21.20
2019-04-20T17:15:05.575Z,21.10
2019-04-20T17:17:35.701Z,21.10
2019-04-20T17:20:03.956Z,21.10
2019-04-20T17:22:32.302Z,21.10
2019-04-20T17:25:01.688Z,21.10
2019-04-20T17:27:59.251Z,21.10
2019-04-20T17:30:50.860Z,21.10
2019-04-20T17:33:25.768Z,21.10
2019-04-20T17:36:03.026Z,21.00
2019-04-20T17:38:22.579Z,21.00
2019-04-20T17:41:02.901Z,21.00
2019-04-20T17:43:29.100Z,21.00
2019-04-20T17:46:02.228Z,21.00
2019-04-20T17:48:33.192Z,20.90
2019-04-20T17:51:13.918Z,20.90
2019-04-20T17:53:47.372Z,20.90
2019-04-20T17:56:10.324Z,20.90
2019-04-20T17:58:41.273Z,20.90
2019-04-20T18:01:41.321Z,20.90
2019-04-20T18:04:27.109Z,20.90
2019-04-20T18:06:45.280Z,20.90
2019-04-20T18:09:07.098Z,20.80
2019-04-20T18:11:33.012Z,20.80
2019-04-20T18:14:01.872Z,20.80
2019-04-20T18:16:53.395Z,20.70
2019-04-20T18:19:13.805Z,20.70
2019-04-20T18:21:59.343Z,20.60
2019-04-20T18:24:50.511Z,20.60
2019-04-20T18:27:17.388Z,20.50
2019-04-20T18:29:45.554Z,20.50
2019-04-20T18:32:09.417Z,20.40
2019-04-20T18:34:57.252Z,20.40
2019-04-20T18:37:23.935Z,20.40
2019-04-20T18:39:57.402Z,20.30
2019-04-20T18:42:30.687Z,20.30
2019-04-20T18:45:09.172Z,20.20
2019-04-20T18:47:40.157Z,20.20
2019-04-20T18:50:00.052Z,20.00
2019-04-20T18:52:21.951Z,20.10
2019-04-20T18:54:53.648Z,20.00
2019-04-20T18:57:25.321Z,20.00
2019-04-20T18:59:54.494Z,19.90
2019-04-20T19:02:26.938Z,19.90
2019-04-20T19:04:50.133Z,19.90
2019-04-20T19:07:19.746Z,19.80
2019-04-20T19:09:48.484Z,19.80
2019-04-20T19:12:16.672Z,19.70
2019-04-20T19:15:05.985Z,19.60
2019-04-20T19:17:52.206Z,19.50
2019-04-20T19:20:20.216Z,19.50
2019-04-20T19:22:48.367Z,19.50
2019-04-20T19:25:23.151Z,19.50
2019-04-20T19:27:52.084Z,19.50
2019-04-20T19:30:27.451Z,19.50
2019-04-20T19:33:05.070Z,19.40
2019-04-20T19:35:30.910Z,19.30
2019-04-20T19:37:56.980Z,19.20
2019-04-20T19:40:28.735Z,19.20
2019-04-20T19:42:59.948Z,19.10
2019-04-20T19:45:44.907Z,19.00
2019-04-20T19:48:00.139Z,19.00
2019-04-20T19:50:54.791Z,18.90
2019-04-20T19:53:12.493Z,18.80
2019-04-20T19:55:31.481Z,18.80
2019-04-20T19:57:59.120Z,18.80
2019-04-20T20:00:14.951Z,18.80
2019-04-20T20:02:43.491Z,18.80
2019-04-20T20:05:15.687Z,18.70
2019-04-20T20:07:45.696Z,18.70
2019-04-20T20:10:12.895Z,18.60
2019-04-20T20:12:48.417Z,18.60
2019-04-20T20:15:20.221Z,18.60
2019-04-20T20:18:02.277Z,18.60
2019-04-20T20:20:38.146Z,18.60
2019-04-20T20:22:48.344Z,18.50
2019-04-20T20:25:12.815Z,18.50
2019-04-20T20:27:49.213Z,18.50
2019-04-20T20:30:18.549Z,18.50
2019-04-20T20:32:56.829Z,18.50
2019-04-20T20:35:20.164Z,18.60
2019-04-20T20:37:45.738Z,18.60
2019-04-20T20:40:18.806Z,18.60
2019-04-20T20:42:52.656Z,18.50
2019-04-20T20:45:19.847Z,18.50
2019-04-20T20:48:01.611Z,18.50
2019-04-20T20:50:32.659Z,18.50
2019-04-20T20:52:54.713Z,18.50
2019-04-20T20:55:22.115Z,18.50
2019-04-20T20:57:47.103Z,18.60
2019-04-20T21:00:24.016Z,18.60
2019-04-20T21:02:45.868Z,18.70
2019-04-20T21:05:07.106Z,18.70
2019-04-20T21:07:36.412Z,18.70
2019-04-20T21:10:06.161Z,18.80
2019-04-20T21:12:36.379Z,18.80
2019-04-20T21:15:08.231Z,18.90
2019-04-20T21:17:41.676Z,19.00
2019-04-20T21:20:19.121Z,19.00
2019-04-20T21:22:54.787Z,19.00
2019-04-20T21:25:07.802Z,19.10
2019-04-20T21:27:37.078Z,19.10
2019-04-20T21:30:17.205Z,19.20
2019-04-20T21:32:42.197Z,19.20
2019-04-20T21:35:10.510Z,19.30
2019-04-20T21:37:34.821Z,19.30
2019-04-20T21:40:15.746Z,19.30
2019-04-20T21:42:39.649Z,19.40
2019-04-20T21:45:08.144Z,19.40
2019-04-20T21:47:36.332Z,19.40
2019-04-20T21:50:18.822Z,19.50
2019-04-20T21:52:39.240Z,19.50
2019-04-20T21:55:01.466Z,19.50
2019-04-20T21:57:32.492Z,19.50
2019-04-20T22:00:08.518Z,19.60
2019-04-20T22:02:32.739Z,19.60
2019-04-20T22:04:58.327Z,19.60
2019-04-20T22:07:26.619Z,19.60
2019-04-20T22:09:56.733Z,19.60
2019-04-20T22:12:28.535Z,19.60
2019-04-20T22:15:00.103Z,19.60
2019-04-20T22:17:28.648Z,19.60
2019-04-20T22:20:10.227Z,19.60
2019-04-20T22:22:45.456Z,19.70
2019-04-20T22:25:10.425Z,19.70
2019-04-20T22:27:27.813Z,19.70
2019-04-20T22:29:54.276Z,19.70
2019-04-20T22:32:23.961Z,19.70
2019-04-20T22:34:56.828Z,19.70
2019-04-20T22:37:28.346Z,19.70
2019-04-20T22:39:56.191Z,19.70
2019-04-20T22:42:23.577Z,19.70
2019-04-20T22:44:56.593Z,19.70
2019-04-20T22:47:25.456Z,19.70
2019-04-20T22:50:12.685Z,19.70
2019-04-20T22:52:34.754Z,19.70
2019-04-20T22:55:10.054Z,19.70
2019-04-20T22:57:36.334Z,19.70
2019-04-20T22:59:58.320Z,19.80
2019-04-20T23:02:22.583Z,19.80
2019-04-20T23:04:48.781Z,19.80
2019-04-20T23:07:17.078Z,19.70
2019-04-20T23:09:50.886Z,19.70
2019-04-20T23:12:18.977Z,19.70
2019-04-20T23:14:44.807Z,19.70
2019-04-20T23:17:18.532Z,19.80
2019-04-20T23:19:48.617Z,19.70
2019-04-20T23:22:13.989Z,19.80
2019-04-20T23:24:41.846Z,19.80
2019-04-20T23:27:15.317Z,19.80
2019-04-20T23:29:41.806Z,19.70
2019-04-20T23:32:13.763Z,19.80
2019-04-20T23:34:40.914Z,19.70
2019-04-20T23:37:16.156Z,19.80
2019-04-20T23:39:41.518Z,19.80
2019-04-20T23:42:11.164Z,19.70
2019-04-20T23:45:00.361Z,19.80
2019-04-20T23:47:52.049Z,19.80
2019-04-20T23:50:36.975Z,19.80
2019-04-20T23:53:06.190Z,19.80
2019-04-20T23:55:16.985Z,19.80
2019-04-20T23:57:46.070Z,19.80
